createdAt,value
2022-12-23T00:02:08.097Z,17.73
2022-12-23T00:05:10.285Z,20.60
2022-12-23T00:08:12.204Z,19.00
2022-12-23T00:11:17.704Z,21.85
2022-12-23T00:14:38.343Z,22.88
2022-12-23T00:17:45.462Z,21.05
2022-12-23T00:20:47.238Z,23.13
2022-12-23T00:23:50.685Z,23.80
2022-12-23T00:26:52.532Z,19.95
2022-12-23T00:29:54.358Z,20.92
2022-12-23T00:32:56.156Z,21.60
2022-12-23T00:35:58.619Z,17.58
2022-12-23T00:39:18.980Z,18.08
2022-12-23T00:42:39.269Z,20.88
2022-12-23T00:45:41.184Z,18.05
2022-12-23T00:49:01.597Z,18.77
2022-12-23T00:52:05.551Z,17.83
2022-12-23T00:55:07.783Z,19.52
2022-12-23T00:58:09.637Z,23.08
2022-12-23T01:01:30.027Z,18.10
2022-12-23T01:04:50.637Z,21.38
2022-12-23T01:07:53.119Z,19.02
2022-12-23T01:10:55.489Z,22.05
2022-12-23T01:13:58.727Z,26.95
2022-12-23T01:17:00.812Z,20.13
2022-12-23T01:20:02.894Z,21.77
2022-12-23T01:23:04.892Z,18.17
2022-12-23T01:26:08.140Z,19.15
2022-12-23T01:29:10.018Z,20.35
2022-12-23T01:32:11.900Z,22.52
2022-12-23T01:35:13.976Z,19.58
2022-12-23T01:38:15.942Z,20.10
2022-12-23T01:41:42.715Z,19.65
2022-12-23T01:44:58.212Z,23.50
2022-12-23T01:48:03.327Z,21.88
2022-12-23T01:51:10.921Z,21.75
2022-12-23T01:54:13.021Z,21.52
2022-12-23T01:57:15.707Z,24.00
2022-12-23T02:00:36.669Z,20.90
2022-12-23T02:03:44.675Z,22.88
2022-12-23T02:07:08.000Z,25.38
2022-12-23T02:10:10.349Z,24.15
2022-12-23T02:13:22.404Z,22.13
2022-12-23T02:16:24.421Z,22.90
2022-12-23T02:19:57.109Z,21.57
2022-12-23T02:23:18.515Z,23.70
2022-12-23T02:26:35.536Z,21.80
2022-12-23T02:30:01.807Z,23.98
2022-12-23T02:33:29.920Z,19.95
2022-12-23T02:36:47.062Z,21.67
2022-12-23T02:39:58.828Z,23.45
2022-12-23T02:43:16.036Z,21.33
2022-12-23T02:46:43.688Z,20.95
2022-12-23T02:49:51.727Z,21.95
2022-12-23T02:52:57.333Z,21.60
2022-12-23T02:56:02.158Z,20.77
2022-12-23T02:59:13.108Z,24.25
2022-12-23T03:02:15.485Z,22.60
2022-12-23T03:05:28.077Z,22.25
2022-12-23T03:08:43.505Z,22.92
2022-12-23T03:11:57.491Z,27.55
2022-12-23T03:15:24.596Z,25.17
2022-12-23T03:18:29.157Z,25.58
2022-12-23T03:21:55.596Z,22.17
2022-12-23T03:25:06.292Z,23.00
2022-12-23T03:28:16.239Z,23.73
2022-12-23T03:31:24.725Z,21.13
2022-12-23T03:34:31.308Z,22.10
2022-12-23T03:37:37.432Z,21.30
2022-12-23T03:40:43.664Z,24.73
2022-12-23T03:43:55.289Z,22.42
2022-12-23T03:47:10.134Z,21.85
2022-12-23T03:50:15.226Z,21.63
2022-12-23T03:53:24.297Z,22.63
2022-12-23T03:56:33.076Z,21.70
2022-12-23T03:59:39.086Z,22.65
2022-12-23T04:03:04.353Z,24.15
2022-12-23T04:06:12.418Z,23.42
2022-12-23T04:09:21.740Z,24.65
2022-12-23T04:12:27.336Z,21.25
2022-12-23T04:15:29.875Z,22.75
2022-12-23T04:18:31.756Z,23.30
2022-12-23T04:21:33.504Z,24.63
2022-12-23T04:24:35.323Z,21.88
2022-12-23T04:27:37.347Z,24.15
2022-12-23T04:30:39.140Z,24.90
2022-12-23T04:33:41.076Z,20.75
2022-12-23T04:36:42.922Z,22.25
2022-12-23T04:39:44.756Z,22.63
2022-12-23T04:42:46.644Z,24.33
2022-12-23T04:45:52.008Z,20.20
2022-12-23T04:48:53.980Z,21.73
2022-12-23T04:51:55.756Z,20.50
2022-12-23T04:54:57.571Z,22.08
2022-12-23T04:57:59.396Z,23.65
2022-12-23T05:01:06.566Z,22.73
2022-12-23T05:04:10.152Z,22.10
2022-12-23T05:07:12.099Z,22.20
2022-12-23T05:10:14.920Z,19.95
2022-12-23T05:13:16.725Z,22.50
2022-12-23T05:16:18.747Z,21.63
2022-12-23T05:19:20.572Z,20.87
2022-12-23T05:22:22.419Z,18.35
2022-12-23T05:25:24.321Z,18.83
2022-12-23T05:28:26.149Z,18.65
2022-12-23T05:31:28.182Z,17.65
2022-12-23T05:34:30.155Z,21.03
2022-12-23T05:37:32.121Z,17.58
2022-12-23T05:40:33.929Z,18.23
2022-12-23T05:43:36.104Z,18.83
2022-12-23T05:46:38.036Z,18.42
2022-12-23T05:49:40.044Z,17.47
2022-12-23T05:52:42.255Z,17.75
2022-12-23T05:55:44.143Z,18.70
2022-12-23T05:58:45.990Z,20.00
2022-12-23T06:01:47.918Z,18.25
2022-12-23T06:04:49.861Z,19.33
2022-12-23T06:07:51.655Z,18.98
2022-12-23T06:10:54.036Z,18.35
2022-12-23T06:13:55.942Z,15.85
2022-12-23T06:16:58.031Z,15.52
2022-12-23T06:20:00.057Z,17.50
2022-12-23T06:23:03.008Z,16.97
2022-12-23T06:29:06.782Z,17.95
2022-12-23T06:32:08.951Z,17.45
2022-12-23T06:35:10.999Z,17.30
2022-12-23T06:38:12.909Z,17.02
2022-12-23T06:41:15.014Z,18.33
2022-12-23T06:44:17.219Z,17.10
2022-12-23T06:47:19.103Z,18.00
2022-12-23T06:50:20.924Z,17.10
2022-12-23T06:53:22.812Z,15.77
2022-12-23T06:56:24.708Z,17.08
2022-12-23T06:59:27.023Z,19.80
2022-12-23T07:02:28.969Z,18.02
2022-12-23T07:05:37.079Z,18.38
2022-12-23T07:08:39.568Z,18.20
2022-12-23T07:11:41.437Z,17.52
2022-12-23T07:14:43.338Z,18.30
2022-12-23T07:17:45.179Z,17.88
2022-12-23T07:20:47.055Z,16.88
2022-12-23T07:23:48.963Z,17.70
2022-12-23T07:26:51.525Z,17.88
2022-12-23T07:29:53.311Z,16.45
2022-12-23T07:32:55.137Z,15.85
2022-12-23T07:36:00.325Z,19.08
2022-12-23T07:39:02.170Z,15.05
2022-12-23T07:42:33.798Z,15.38
2022-12-23T07:45:27.367Z,17.02
2022-12-23T07:48:29.377Z,16.13
2022-12-23T07:51:32.121Z,18.58
2022-12-23T07:54:36.802Z,19.73
2022-12-23T07:57:40.005Z,19.80
2022-12-23T08:00:41.784Z,17.23
2022-12-23T08:03:43.748Z,16.52
2022-12-23T08:06:45.664Z,20.45
2022-12-23T08:09:47.515Z,19.48
2022-12-23T08:12:49.483Z,19.10
2022-12-23T08:15:59.010Z,17.58
2022-12-23T08:19:00.922Z,21.70
2022-12-23T08:22:03.038Z,19.23
2022-12-23T08:25:05.262Z,18.80
2022-12-23T08:28:07.114Z,19.75
2022-12-23T08:31:22.050Z,20.38
2022-12-23T08:34:24.033Z,18.80
2022-12-23T08:37:25.958Z,18.83
2022-12-23T08:40:27.783Z,22.45
2022-12-23T08:43:35.502Z,18.40
2022-12-23T08:46:38.526Z,18.45
2022-12-23T08:49:40.487Z,17.27
2022-12-23T08:52:42.268Z,20.10
2022-12-23T08:55:47.248Z,18.05
2022-12-23T08:58:51.109Z,19.23
2022-12-23T09:01:54.182Z,19.35
2022-12-23T09:04:57.155Z,18.17
2022-12-23T09:11:01.465Z,19.70
2022-12-23T09:14:04.577Z,19.58
2022-12-23T09:17:06.469Z,19.75
2022-12-23T09:20:08.891Z,21.02
2022-12-23T09:23:10.847Z,19.77
2022-12-23T09:26:19.722Z,18.55
2022-12-23T09:29:21.684Z,19.95
2022-12-23T09:32:23.574Z,22.10
2022-12-23T09:35:25.565Z,19.97
2022-12-23T09:38:27.459Z,19.02
2022-12-23T09:41:48.953Z,18.92
2022-12-23T09:44:53.543Z,19.45
2022-12-23T09:47:56.701Z,18.77
2022-12-23T09:51:00.817Z,20.63
2022-12-23T09:54:30.681Z,22.90
2022-12-23T09:57:32.496Z,18.40
2022-12-23T10:00:42.876Z,20.95
2022-12-23T10:04:02.949Z,19.52
2022-12-23T10:07:04.853Z,23.20
2022-12-23T10:10:17.487Z,24.02
2022-12-23T10:13:27.932Z,25.70
2022-12-23T10:16:38.363Z,21.92
2022-12-23T10:19:47.390Z,21.33
2022-12-23T10:22:50.057Z,20.10
2022-12-23T10:25:52.687Z,21.45
2022-12-23T10:29:01.351Z,22.05
2022-12-23T10:32:27.772Z,20.38
2022-12-23T10:36:00.592Z,21.25
2022-12-23T10:39:17.239Z,20.30
2022-12-23T10:42:36.912Z,23.35
2022-12-23T10:45:41.522Z,19.95
2022-12-23T10:48:46.090Z,19.90
2022-12-23T10:51:59.249Z,34.42
2022-12-23T10:58:18.254Z,22.80
2022-12-23T11:01:26.568Z,25.65
2022-12-23T11:04:35.266Z,20.58
2022-12-23T11:07:45.652Z,21.25
2022-12-23T11:10:49.043Z,19.98
2022-12-23T11:13:51.111Z,20.35
2022-12-23T11:16:52.998Z,18.67
2022-12-23T11:20:19.984Z,19.77
2022-12-23T11:23:33.554Z,19.00
2022-12-23T11:26:36.074Z,19.52
2022-12-23T11:29:43.872Z,21.67
2022-12-23T11:32:45.830Z,21.63
2022-12-23T11:35:47.834Z,19.77
2022-12-23T11:39:09.683Z,18.77
2022-12-23T11:42:19.754Z,22.25
2022-12-23T11:45:24.833Z,20.48
2022-12-23T11:48:29.559Z,19.77
2022-12-23T11:51:31.449Z,22.17
2022-12-23T11:54:34.156Z,21.10
2022-12-23T11:57:42.338Z,22.50
2022-12-23T12:00:56.035Z,20.42
2022-12-23T12:04:06.646Z,21.77
2022-12-23T12:07:13.448Z,19.85
2022-12-23T12:10:22.404Z,21.73
2022-12-23T12:13:28.431Z,22.77
2022-12-23T12:16:56.914Z,21.50
2022-12-23T12:20:21.821Z,22.00
2022-12-23T12:23:40.448Z,21.15
2022-12-23T12:26:47.128Z,23.40
2022-12-23T12:29:55.846Z,21.48
2022-12-23T12:33:05.436Z,24.42
2022-12-23T12:36:16.554Z,23.10
2022-12-23T12:39:30.589Z,22.25
2022-12-23T12:42:40.787Z,21.58
2022-12-23T12:46:00.154Z,22.25
2022-12-23T12:49:13.981Z,26.15
2022-12-23T12:52:20.428Z,26.52
2022-12-23T12:55:32.780Z,23.27
2022-12-23T12:58:34.601Z,24.77
2022-12-23T13:01:39.204Z,23.83
2022-12-23T13:05:05.515Z,22.30
2022-12-23T13:08:36.190Z,25.42
2022-12-23T13:11:54.675Z,23.75
2022-12-23T13:15:04.553Z,22.90
2022-12-23T13:18:33.775Z,24.27
2022-12-23T13:21:44.553Z,24.70
2022-12-23T13:25:20.053Z,27.17
2022-12-23T13:28:46.247Z,25.58
2022-12-23T13:31:59.093Z,28.35
2022-12-23T13:35:22.804Z,24.20
2022-12-23T13:38:49.224Z,29.77
2022-12-23T13:41:56.432Z,23.48
2022-12-23T13:45:03.961Z,22.90
2022-12-23T13:48:24.121Z,25.00
2022-12-23T13:51:25.925Z,25.58
2022-12-23T13:54:27.819Z,26.73
2022-12-23T13:57:50.999Z,23.75
2022-12-23T14:01:07.844Z,38.15
2022-12-23T14:04:52.416Z,29.90
2022-12-23T14:07:54.899Z,28.65
2022-12-23T14:11:02.442Z,29.67
2022-12-23T14:14:07.308Z,24.48
2022-12-23T14:17:20.701Z,23.65
2022-12-23T14:20:34.510Z,22.73
2022-12-23T14:23:44.997Z,28.33
2022-12-23T14:27:14.358Z,62.72
2022-12-23T14:30:36.319Z,44.70
2022-12-23T14:33:38.257Z,25.02
2022-12-23T14:36:40.233Z,23.08
2022-12-23T14:39:43.869Z,40.72
2022-12-23T14:42:45.835Z,38.25
2022-12-23T14:45:49.814Z,32.33
2022-12-23T14:49:09.672Z,28.00
2022-12-23T14:52:38.072Z,25.17
2022-12-23T14:55:47.310Z,33.10
2022-12-23T14:58:56.696Z,56.80
2022-12-23T15:02:16.969Z,32.28
2022-12-23T15:05:23.396Z,26.13
2022-12-23T15:08:31.201Z,32.53
2022-12-23T15:11:34.886Z,52.50
2022-12-23T15:15:23.404Z,28.95
2022-12-23T15:18:25.626Z,40.83
2022-12-23T15:21:30.493Z,85.57
2022-12-23T15:24:32.673Z,58.83
2022-12-23T15:27:36.849Z,32.85
2022-12-23T15:30:52.192Z,34.20
2022-12-23T15:34:05.245Z,28.35
2022-12-23T15:37:13.127Z,25.40
2022-12-23T15:40:25.603Z,31.50
2022-12-23T15:43:27.937Z,24.60
2022-12-23T15:46:31.868Z,39.47
2022-12-23T15:49:34.195Z,48.85
2022-12-23T15:52:41.555Z,28.30
2022-12-23T15:55:43.697Z,29.83
2022-12-23T15:58:45.898Z,24.47
2022-12-23T16:01:48.021Z,27.48
2022-12-23T16:04:55.069Z,25.63
2022-12-23T16:08:13.916Z,26.77
2022-12-23T16:11:18.838Z,26.52
2022-12-23T16:14:32.591Z,27.98
2022-12-23T16:17:36.130Z,24.95
2022-12-23T16:20:45.591Z,26.83
2022-12-23T16:23:51.736Z,28.73
2022-12-23T16:26:56.353Z,28.80
2022-12-23T16:30:10.889Z,29.52
2022-12-23T16:33:48.395Z,26.90
2022-12-23T16:36:50.270Z,26.30
2022-12-23T16:39:52.055Z,30.10
2022-12-23T16:42:54.307Z,26.60
2022-12-23T16:45:57.534Z,29.20
2022-12-23T16:49:04.592Z,25.67
2022-12-23T16:52:09.236Z,27.30
2022-12-23T16:55:19.494Z,26.13
2022-12-23T16:58:21.414Z,27.20
2022-12-23T17:01:29.841Z,29.38
2022-12-23T17:04:31.955Z,31.95
2022-12-23T17:07:33.870Z,38.28
2022-12-23T17:10:37.130Z,32.85
2022-12-23T17:13:39.072Z,29.13
2022-12-23T17:16:40.966Z,32.53
2022-12-23T17:19:42.926Z,27.85
2022-12-23T17:22:47.606Z,26.52
2022-12-23T17:25:49.424Z,28.27
2022-12-23T17:28:51.333Z,29.33
2022-12-23T17:31:53.347Z,29.67
2022-12-23T17:34:55.264Z,28.17
2022-12-23T17:37:57.070Z,29.27
2022-12-23T17:40:59.060Z,30.17
2022-12-23T17:44:01.338Z,32.50
2022-12-23T17:47:10.556Z,28.92
2022-12-23T17:50:12.335Z,32.05
2022-12-23T17:53:18.589Z,33.55
2022-12-23T17:56:21.479Z,32.60
2022-12-23T18:02:25.270Z,32.00
2022-12-23T18:05:33.155Z,31.60
2022-12-23T18:08:34.981Z,29.45
2022-12-23T18:11:41.863Z,41.05
2022-12-23T18:14:45.053Z,44.72
2022-12-23T18:17:47.166Z,47.03
2022-12-23T18:20:51.349Z,32.87
2022-12-23T18:23:55.245Z,36.05
2022-12-23T18:26:57.104Z,32.15
2022-12-23T18:29:58.883Z,35.03
2022-12-23T18:33:00.713Z,30.83
2022-12-23T18:36:02.584Z,31.65
2022-12-23T18:39:04.397Z,29.17
2022-12-23T18:42:06.743Z,32.28
2022-12-23T18:45:20.398Z,47.33
2022-12-23T18:48:22.288Z,30.17
2022-12-23T18:51:24.215Z,30.77
2022-12-23T18:54:25.992Z,30.73
2022-12-23T18:57:27.843Z,32.88
2022-12-23T19:00:31.282Z,37.03
2022-12-23T19:03:33.451Z,32.05
2022-12-23T19:06:35.387Z,40.03
2022-12-23T19:09:37.184Z,33.10
2022-12-23T19:12:39.178Z,38.13
2022-12-23T19:15:44.779Z,31.87
2022-12-23T19:18:48.161Z,33.80
2022-12-23T19:21:50.018Z,32.70
2022-12-23T19:25:04.544Z,33.10
2022-12-23T19:28:09.785Z,33.92
2022-12-23T19:31:14.522Z,37.22
2022-12-23T19:34:16.446Z,35.05
2022-12-23T19:37:18.727Z,36.95
2022-12-23T19:40:20.574Z,36.25
2022-12-23T19:43:22.390Z,34.65
2022-12-23T19:46:24.324Z,38.60
2022-12-23T19:49:26.249Z,39.22
2022-12-23T19:52:28.151Z,38.70
2022-12-23T19:55:29.970Z,38.60
2022-12-23T19:58:34.240Z,40.60
2022-12-23T20:01:36.246Z,42.75
2022-12-23T20:07:40.891Z,39.55
2022-12-23T20:10:43.979Z,38.88
2022-12-23T20:13:47.309Z,34.30
2022-12-23T20:16:49.504Z,35.50
2022-12-23T20:19:52.440Z,34.78
2022-12-23T20:25:56.059Z,38.17
2022-12-23T20:28:58.471Z,41.40
2022-12-23T20:32:00.349Z,45.92
2022-12-23T20:35:02.377Z,42.28
2022-12-23T20:38:04.282Z,47.77
2022-12-23T20:41:11.304Z,48.58
2022-12-23T20:47:35.048Z,46.03
2022-12-23T20:50:41.827Z,40.43
2022-12-23T20:53:43.914Z,41.92
2022-12-23T20:56:45.804Z,40.57
2022-12-23T20:59:47.628Z,40.22
2022-12-23T21:02:49.638Z,44.08
2022-12-23T21:05:56.736Z,43.10
2022-12-23T21:09:00.148Z,50.15
2022-12-23T21:12:02.430Z,47.83
2022-12-23T21:15:05.050Z,45.42
2022-12-23T21:18:06.974Z,38.47
2022-12-23T21:21:09.062Z,38.53
2022-12-23T21:24:11.888Z,42.37
2022-12-23T21:27:13.747Z,36.60
2022-12-23T21:30:15.801Z,38.72
2022-12-23T21:33:17.715Z,44.53
2022-12-23T21:36:23.008Z,42.72
2022-12-23T21:39:24.985Z,44.00
2022-12-23T21:42:26.912Z,48.10
2022-12-23T21:45:28.797Z,40.03
2022-12-23T21:48:32.979Z,41.20
2022-12-23T21:51:39.982Z,43.80
2022-12-23T21:54:42.761Z,39.42
2022-12-23T21:57:44.743Z,39.78
2022-12-23T22:00:46.916Z,38.60
2022-12-23T22:03:50.510Z,39.05
2022-12-23T22:06:52.421Z,38.70
2022-12-23T22:09:54.253Z,44.00
2022-12-23T22:12:56.074Z,42.42
2022-12-23T22:15:58.101Z,39.30
2022-12-23T22:19:01.547Z,48.10
2022-12-23T22:22:03.399Z,42.08
2022-12-23T22:25:05.623Z,49.20
2022-12-23T22:28:07.518Z,42.28
2022-12-23T22:31:29.970Z,48.13
2022-12-23T22:34:31.833Z,42.20
2022-12-23T22:37:33.845Z,45.15
2022-12-23T22:40:35.723Z,48.23
2022-12-23T22:43:38.010Z,45.05
2022-12-23T22:46:40.184Z,41.88
2022-12-23T22:49:42.867Z,39.97
2022-12-23T22:52:44.649Z,43.03
2022-12-23T22:55:55.887Z,39.30
2022-12-23T22:58:57.723Z,42.50
2022-12-23T23:01:59.680Z,42.95
2022-12-23T23:05:01.636Z,38.97
2022-12-23T23:08:03.604Z,39.20
2022-12-23T23:11:05.688Z,43.42
2022-12-23T23:14:07.635Z,41.85
2022-12-23T23:17:09.437Z,45.90
2022-12-23T23:20:11.511Z,43.03
2022-12-23T23:23:13.504Z,40.55
2022-12-23T23:26:16.044Z,39.78
2022-12-23T23:29:17.942Z,40.83
2022-12-23T23:32:19.809Z,42.25
2022-12-23T23:35:21.727Z,42.75
2022-12-23T23:38:25.575Z,44.33
2022-12-23T23:41:28.563Z,47.03
2022-12-23T23:44:31.617Z,41.67
2022-12-23T23:47:35.073Z,44.47
2022-12-23T23:50:37.795Z,45.53
2022-12-23T23:53:40.312Z,43.35
2022-12-23T23:56:42.288Z,44.63
2022-12-23T23:59:44.177Z,46.05
